Hastings Natural History Reservation, California Weather observations

Data are for 10 minute period ending at time listed.
 Day   Time   Solar   Ave.   Ave.  Ave.  Vector  Max.   Baro.   Total    
  of    of     Rad.   Air    Rel.  Wind   Wind   Wind  Press.  Precip.   
Year   Day            Temp.  Hum.  Speed  Dir.   Gust                    
2014   (PST)  Kw/m2    F      %     mph   deg.    mph    mb.     in.     
-------------------------------------------------------------------------
 208   16:20   0.71   89.6    29    5.3   259    11.7   952.3    0.00 
 208   16:30   0.70   87.9    30    4.1   256    10.1   952.3    0.00 
 208   16:40   0.68   89.0    28    2.9   261     8.4   952.3    0.00 
 208   16:50   0.60   89.7    27    2.9   264     7.5   952.3    0.00 
 208   17:00   0.62   89.5    26    2.8   268     9.6   952.3    0.00 
 208   17:10   0.59   89.8    25    3.1   253     9.6   952.4    0.00 
 208   17:20   0.56   89.2    25    5.0   255    10.7   952.4    0.00 
 208   17:30   0.53   88.0    25    3.4   256     8.0   952.4    0.00 
 208   17:40   0.50   88.8    24    3.7   254     8.8   952.3    0.00 
 208   17:50   0.46   88.5    24    3.1   261     8.6   952.4    0.00 
 208   18:00   0.42   88.9    23    2.4   277     9.4   952.4    0.00 
 208   18:10   0.40   88.5    23    1.5   319     6.2   952.3    0.00 
 208   18:20   0.37   88.1    23    1.9     6     5.8   952.3    0.00 
 208   18:30   0.30   87.5    24    3.0   280     7.7   952.2    0.00 
 208   18:40   0.30   86.0    25    2.9   250     8.1   952.2    0.00 
 208   18:50   0.27   84.2    27    4.2   248     8.6   952.3    0.00 
 208   19:00   0.10   83.7    27    2.5   257     5.4   952.3    0.00 
 208   19:10   0.04   83.4    28    1.7   270     4.9   952.3    0.00 
 208   19:20   0.03   82.1    31    2.1   268     5.8   952.4    0.00 
 208   19:30   0.03   80.6    34    2.3   253     4.7   952.4    0.00 
 208   19:40   0.03   79.1    37    2.0   252     4.5   952.4    0.00 
 208   19:50   0.01   77.8    39    1.3   291     3.4   952.5    0.00 
 208   20:00   0.01   76.0    43    2.8   236     4.7   952.5    0.00 
 208   20:10   0.00   74.6    45    1.4   234     4.0   952.4    0.00 
 208   20:20   0.00   73.7    46    0.3   278     1.6   952.4    0.00 
 208   20:30   0.00   72.6    48    0.8    43     2.4   952.4    0.00 
 208   20:40   0.00   71.8    49    0.4   211     1.2   952.4    0.00 
 208   20:50   0.00   70.9    49    0.0   223     0.7   952.4    0.00 
 208   21:00   0.00   70.3    50    0.1   229     0.6   952.6    0.00 
 208   21:10   0.00   69.5    51    0.1    40     0.8   952.7    0.00 
 208   21:20   0.00   68.8    52    0.3    52     0.9   952.8    0.00 
 208   21:30   0.00   68.2    51    0.8    44     1.5   952.9    0.00 
 208   21:40   0.00   67.7    52    0.2    54     0.9   953.1    0.00 
 208   21:50   0.00   67.2    52    0.1   240     0.8   953.1    0.00 
 208   22:00   0.00   66.6    53    0.3    75     1.2   953.1    0.00 
 208   22:10   0.00   66.3    53    0.2    45     0.9   953.2    0.00 
 208   22:20   0.00   66.0    53    0.1    76     0.7   953.3    0.00 
 208   22:30   0.00   65.8    52    0.1    56     1.1   953.3    0.00 
 208   22:40   0.00   65.3    52    0.3    44     1.6   953.4    0.00 
 208   22:50   0.00   65.2    51    0.6    62     1.5   953.3    0.00 
 208   23:00   0.00   65.6    49    0.3    51     1.2   953.3    0.00 
 208   23:10   0.00   65.7    49    0.0     0     0.0   953.3    0.00 
 208   23:20   0.00   65.3    47    0.0     0     0.0   953.2    0.00 
 208   23:30   0.00   64.9    46    0.0     0     0.0   953.2    0.00 
 208   23:40   0.00   64.6    45    0.6    54     1.5   953.2    0.00 
 208   23:50   0.00   64.3    41    0.9    46     1.8   953.2    0.00 
 209    0:00   0.00   64.1    40    0.0     0     0.0   953.2    0.00 
 209    0:10   0.00   63.8    42    0.1    55     0.9   953.4    0.00 
 209    0:20   0.00   63.7    40    1.2    56     2.0   953.5    0.00 
 209    0:30   0.00   63.8    38    0.5    53     1.5   953.5    0.00 
 209    0:40   0.00   64.1    39    0.0     0     0.0   953.4    0.00 
 209    0:50   0.00   64.0    39    0.0     0     0.0   953.4    0.00 
 209    1:00   0.00   63.8    38    0.5    56     1.5   953.3    0.00 
 209    1:10   0.00   63.8    37    0.3   205     1.3   953.1    0.00 
 209    1:20   0.00   63.6    36    0.3    54     0.9   953.0    0.00 
 209    1:30   0.00   63.3    36    0.3    50     1.4   953.0    0.00 
 209    1:40   0.00   63.2    34    0.2    58     0.9   953.0    0.00 
 209    1:50   0.00   62.9    34    0.4    50     1.5   952.9    0.00 
 209    2:00   0.00   62.8    33    0.3    46     2.1   952.9    0.00 
 209    2:10   0.00   62.9    32    0.5    69     2.1   952.9    0.00 
 209    2:20   0.00   62.8    32    0.2    53     1.3   952.9    0.00 
 209    2:30   0.00   62.8    31    0.5    60     2.3   952.8    0.00 
 209    2:40   0.00   62.9    30    0.4    58     1.6   952.8    0.00 
 209    2:50   0.00   62.9    30    0.2    58     0.8   952.8    0.00 
 209    3:00   0.00   63.0    28    0.4    74     1.2   952.7    0.00 
 209    3:10   0.00   63.0    29    0.0    31     0.8   952.7    0.00 
 209    3:20   0.00   62.9    29    0.0     0     0.0   952.7    0.00 
 209    3:30   0.00   62.8    28    1.2    53     2.8   952.7    0.00 
 209    3:40   0.00   63.1    28    0.2    46     1.2   952.7    0.00 
 209    3:50   0.00   63.1    29    0.7    57     2.6   952.8    0.00 
 209    4:00   0.00   63.1    28    0.5    75     2.9   952.8    0.00 
 209    4:10   0.00   63.0    28    0.6    59     1.2   952.9    0.00 
 209    4:20   0.00   63.0    29    0.1    53     0.7   952.9    0.00 
 209    4:30   0.00   62.9    29    1.0    56     1.9   952.9    0.00 
 209    4:40   0.00   63.2    30    0.2    68     1.7   953.0    0.00 
 209    4:50   0.00   63.3    30    0.5    60     2.0   953.0    0.00 
 209    5:00   0.00   63.7    30    0.0    55     0.7   953.0    0.00 
 209    5:10   0.00   64.1    29    0.6    57     1.6   953.0    0.00 
 209    5:20   0.00   64.5    29    1.0    55     2.0   953.0    0.00 
 209    5:30   0.00   65.0    29    0.5    55     1.6   953.0    0.00 
 209    5:40   0.00   65.2    28    1.3    50     1.9   953.1    0.00 
 209    5:50   0.00   65.2    29    0.7    49     1.8   953.1    0.00 
 209    6:00   0.00   65.0    29    0.0    44     0.4   953.1    0.00 
 209    6:10   0.00   64.7    29    1.0    70     1.5   953.2    0.00 
 209    6:20   0.00   64.7    30    1.1    50     2.1   953.3    0.00 
 209    6:30   0.00   64.8    30    0.1    47     1.1   953.3    0.00 
 209    6:40   0.01   64.9    29    0.9    56     1.8   953.3    0.00 
 209    6:50   0.01   65.2    28    0.6    55     1.3   953.3    0.00 
 209    7:00   0.03   65.5    29    0.2    49     1.2   953.4    0.00 
 209    7:10   0.03   65.7    28    1.2    50     1.5   953.5    0.00 
 209    7:20   0.04   66.3    29    0.5    53     1.3   953.6    0.00 
 209    7:30   0.06   66.8    29    0.8    54     1.2   953.6    0.00 
 209    7:40   0.07   67.7    30    0.5    50     1.1   953.7    0.00 
 209    7:50   0.08   69.0    30    0.0    58     0.9   953.7    0.00 
 209    8:00   0.14   70.5    29    0.8    56     2.1   953.8    0.00 
 209    8:10   0.28   73.8    26    0.3    52     1.5   953.7    0.00 
 209    8:20   0.30   78.0    21    0.5   228     1.2   953.8    0.00 
 209    8:30   0.33   81.3    19    0.0     0     0.0   953.9    0.00 
 209    8:40   0.30   82.5    18    0.3   224     2.4   954.0    0.00 
 209    8:50   0.33   82.7    18    0.9   192     2.4   954.2    0.00 
 209    9:00   0.23   82.3    18    1.4   248     3.1   954.3    0.00 
 209    9:10   0.35   82.1    17    1.7   248     4.3   954.4    0.00 
 209    9:20   0.36   82.5    16    1.6   257     4.4   954.5    0.00 
 209    9:30   0.48   83.3    15    1.5   264     3.9   954.6    0.00 
 209    9:40   0.56   84.5    15    2.1   258     6.0   954.7    0.00 
 209    9:50   0.58   83.1    15    3.7   249     7.8   954.7    0.00 
 209   10:00   0.57   83.6    16    2.5   258     7.2   954.8    0.00 
 209   10:10   0.60   85.0    15    2.7   254     6.2   955.0    0.00 
 209   10:20   0.45   83.5    16    3.4   250     6.1   955.1    0.00 
 209   10:30   0.73   85.2    16    2.7   251     5.9   955.1    0.00 
 209   10:40   0.71   87.0    16    1.5   299     6.3   955.1    0.00 
 209   10:50   0.57   86.8    17    3.4   253     7.7   955.1    0.00 
 209   11:00   0.74   85.6    20    5.0   245     9.6   955.1    0.00 
 209   11:10   0.67   86.3    18    3.2   256     8.0   955.1    0.00 
 209   11:20   0.67   86.3    18    4.0   247     9.9   955.2    0.00 
 209   11:30   0.56   87.1    19    2.3   259     6.4   955.2    0.00 
 209   11:40   0.46   86.4    20    2.2   272     6.1   955.3    0.00 
 209   11:50   0.64   86.5    22    2.8   258     5.8   955.3    0.00 
 209   12:00   0.72   87.1    23    3.3   252     7.3   955.3    0.00 
 209   12:10   0.47   86.4    25    2.3   255     6.2   955.3    0.00 
 209   12:20   0.78   86.2    26    4.2   235     8.8   955.3    0.00 
 209   12:30   0.86   88.0    26    3.8   304     8.8   955.3    0.00 
 209   12:40   0.86   89.0    25    3.3   272     8.7   955.2    0.00 
 209   12:50   0.82   89.8    24    3.6   250     8.6   955.3    0.00 
 209   13:00   0.79   89.6    26    4.8   243    12.9   955.2    0.00 
 209   13:10   0.77   89.2    26    5.8   242    10.9   955.2    0.00 
 209   13:20   0.63   89.3    27    2.7   262     6.9   955.2    0.00 
 209   13:30   0.86   89.7    27    5.0   251    12.9   955.1    0.00 
 209   13:40   0.79   89.5    28    3.3   256     9.2   955.1    0.00 
 209   13:50   0.79   90.8    27    3.5   259     8.6   955.1    0.00 
 209   14:00   0.82   91.4    26    3.6   263    11.4   955.1    0.00 
 209   14:10   0.89   89.7    28    5.5   252    10.9   955.1    0.00 
 209   14:20   0.76   90.4    26    4.1   268    12.4   955.1    0.00 
 209   14:30   0.53   90.9    26    3.1   270    12.0   955.1    0.00 
 209   14:40   0.80   91.0    26    4.3   266     9.0   955.1    0.00 
 209   14:50   0.88   89.2    28    5.8   254    12.3   955.1    0.00 
 209   15:00   0.82   91.1    26    2.8   266    10.7   955.1    0.00 
 209   15:10   0.77   91.5    25    3.0   267    10.7   955.0    0.00 
 209   15:20   0.56   91.7    24    2.4   272     6.1   954.9    0.00 
 209   15:30   0.39   89.6    24    4.0   252     9.5   954.8    0.00 
 209   15:40   0.38   88.0    26    5.2   246    10.5   954.8    0.00 
 209   15:50   0.64   88.3    26    3.5   274     9.0   954.9    0.00 
 209   16:00   0.67   91.1    24    2.9   284     7.3   954.8    0.00 
 209   16:10   0.33   89.8    25    3.8   255     8.6   954.7    0.00 

Return to Hastings Natural History Reservation graphs page.


Western Regional Climate Center,wrcc@dri.edu